sensor_id;sensor_type;location;lat;lon;timestamp;P1;durP1;ratioP1;P2;durP2;ratioP2
42586;SDS011;28216;53.362;-6.288;2023-01-26T00:03:35;21.45;;;4.22;;
42586;SDS011;28216;53.362;-6.288;2023-01-26T00:06:04;22.42;;;3.90;;
42586;SDS011;28216;53.362;-6.288;2023-01-26T00:08:35;19.45;;;4.47;;
42586;SDS011;28216;53.362;-6.288;2023-01-26T00:11:04;24.15;;;4.57;;
42586;SDS011;28216;53.362;-6.288;2023-01-26T00:13:31;20.52;;;4.53;;
42586;SDS011;28216;53.362;-6.288;2023-01-26T00:15:57;17.30;;;4.18;;
42586;SDS011;28216;53.362;-6.288;2023-01-26T00:18:23;25.08;;;4.30;;
42586;SDS011;28216;53.362;-6.288;2023-01-26T00:20:53;24.23;;;4.60;;
42586;SDS011;28216;53.362;-6.288;2023-01-26T00:23:20;21.08;;;4.47;;
42586;SDS011;28216;53.362;-6.288;2023-01-26T00:25:46;22.50;;;4.47;;
42586;SDS011;28216;53.362;-6.288;2023-01-26T00:28:11;20.20;;;4.50;;
42586;SDS011;28216;53.362;-6.288;2023-01-26T00:30:36;24.02;;;5.47;;
42586;SDS011;28216;53.362;-6.288;2023-01-26T00:33:02;24.75;;;4.50;;
42586;SDS011;28216;53.362;-6.288;2023-01-26T00:35:27;23.13;;;4.32;;
42586;SDS011;28216;53.362;-6.288;2023-01-26T00:37:53;22.95;;;4.72;;
42586;SDS011;28216;53.362;-6.288;2023-01-26T00:40:18;24.67;;;5.50;;
42586;SDS011;28216;53.362;-6.288;2023-01-26T00:42:44;19.08;;;4.10;;
42586;SDS011;28216;53.362;-6.288;2023-01-26T00:45:10;19.27;;;4.38;;
42586;SDS011;28216;53.362;-6.288;2023-01-26T00:47:35;24.00;;;4.45;;
42586;SDS011;28216;53.362;-6.288;2023-01-26T00:50:00;16.45;;;3.65;;
42586;SDS011;28216;53.362;-6.288;2023-01-26T00:52:26;22.45;;;4.82;;
42586;SDS011;28216;53.362;-6.288;2023-01-26T00:54:51;16.98;;;4.50;;
42586;SDS011;28216;53.362;-6.288;2023-01-26T00:57:17;20.55;;;4.85;;
42586;SDS011;28216;53.362;-6.288;2023-01-26T00:59:42;17.98;;;4.03;;
42586;SDS011;28216;53.362;-6.288;2023-01-26T01:02:07;24.42;;;4.05;;
42586;SDS011;28216;53.362;-6.288;2023-01-26T01:04:33;20.20;;;4.43;;
42586;SDS011;28216;53.362;-6.288;2023-01-26T01:06:58;19.40;;;3.75;;
42586;SDS011;28216;53.362;-6.288;2023-01-26T01:09:24;21.15;;;4.03;;
42586;SDS011;28216;53.362;-6.288;2023-01-26T01:11:50;18.60;;;4.07;;
42586;SDS011;28216;53.362;-6.288;2023-01-26T01:14:15;19.20;;;3.97;;
42586;SDS011;28216;53.362;-6.288;2023-01-26T01:16:41;20.92;;;4.15;;
42586;SDS011;28216;53.362;-6.288;2023-01-26T01:19:07;21.25;;;4.32;;
42586;SDS011;28216;53.362;-6.288;2023-01-26T01:21:36;23.40;;;4.35;;
42586;SDS011;28216;53.362;-6.288;2023-01-26T01:24:03;19.27;;;3.65;;
42586;SDS011;28216;53.362;-6.288;2023-01-26T01:26:28;22.33;;;4.55;;
42586;SDS011;28216;53.362;-6.288;2023-01-26T01:28:54;20.33;;;4.32;;
42586;SDS011;28216;53.362;-6.288;2023-01-26T01:31:20;17.23;;;4.20;;
42586;SDS011;28216;53.362;-6.288;2023-01-26T01:33:47;18.92;;;4.22;;
42586;SDS011;28216;53.362;-6.288;2023-01-26T01:36:13;19.60;;;3.75;;
42586;SDS011;28216;53.362;-6.288;2023-01-26T01:38:40;19.35;;;3.72;;
42586;SDS011;28216;53.362;-6.288;2023-01-26T01:41:06;15.98;;;3.40;;
42586;SDS011;28216;53.362;-6.288;2023-01-26T01:43:33;20.88;;;4.07;;
42586;SDS011;28216;53.362;-6.288;2023-01-26T01:45:59;25.00;;;4.53;;
42586;SDS011;28216;53.362;-6.288;2023-01-26T01:48:34;22.52;;;3.83;;
42586;SDS011;28216;53.362;-6.288;2023-01-26T01:51:19;23.80;;;4.13;;
42586;SDS011;28216;53.362;-6.288;2023-01-26T01:53:52;21.77;;;3.80;;
42586;SDS011;28216;53.362;-6.288;2023-01-26T01:56:22;17.38;;;3.65;;
42586;SDS011;28216;53.362;-6.288;2023-01-26T01:58:52;26.02;;;4.20;;
42586;SDS011;28216;53.362;-6.288;2023-01-26T02:01:21;26.30;;;3.63;;
42586;SDS011;28216;53.362;-6.288;2023-01-26T02:03:48;20.92;;;4.05;;
42586;SDS011;28216;53.362;-6.288;2023-01-26T02:06:21;21.13;;;4.32;;
42586;SDS011;28216;53.362;-6.288;2023-01-26T02:08:53;19.60;;;4.03;;
42586;SDS011;28216;53.362;-6.288;2023-01-26T02:11:22;18.02;;;3.92;;
42586;SDS011;28216;53.362;-6.288;2023-01-26T02:13:52;18.33;;;3.85;;
42586;SDS011;28216;53.362;-6.288;2023-01-26T02:16:20;20.90;;;4.15;;
42586;SDS011;28216;53.362;-6.288;2023-01-26T02:18:46;20.85;;;4.10;;
42586;SDS011;28216;53.362;-6.288;2023-01-26T02:21:21;20.02;;;3.90;;
42586;SDS011;28216;53.362;-6.288;2023-01-26T02:26:19;25.98;;;4.35;;
42586;SDS011;28216;53.362;-6.288;2023-01-26T02:28:47;21.42;;;4.28;;
42586;SDS011;28216;53.362;-6.288;2023-01-26T02:31:13;18.83;;;3.72;;
42586;SDS011;28216;53.362;-6.288;2023-01-26T02:33:39;18.45;;;3.63;;
42586;SDS011;28216;53.362;-6.288;2023-01-26T02:36:06;23.15;;;3.78;;
42586;SDS011;28216;53.362;-6.288;2023-01-26T02:38:41;20.25;;;4.18;;
42586;SDS011;28216;53.362;-6.288;2023-01-26T02:41:13;22.08;;;3.88;;
42586;SDS011;28216;53.362;-6.288;2023-01-26T02:44:01;21.20;;;3.88;;
42586;SDS011;28216;53.362;-6.288;2023-01-26T02:46:28;26.17;;;4.00;;
42586;SDS011;28216;53.362;-6.288;2023-01-26T02:48:54;19.45;;;3.53;;
42586;SDS011;28216;53.362;-6.288;2023-01-26T02:51:37;19.40;;;3.85;;
42586;SDS011;28216;53.362;-6.288;2023-01-26T02:54:03;21.90;;;3.85;;
42586;SDS011;28216;53.362;-6.288;2023-01-26T02:56:28;20.60;;;4.68;;
42586;SDS011;28216;53.362;-6.288;2023-01-26T02:58:54;23.67;;;3.83;;
42586;SDS011;28216;53.362;-6.288;2023-01-26T03:01:20;24.80;;;3.85;;
42586;SDS011;28216;53.362;-6.288;2023-01-26T03:03:45;16.98;;;3.67;;
42586;SDS011;28216;53.362;-6.288;2023-01-26T03:06:11;23.27;;;3.78;;
42586;SDS011;28216;53.362;-6.288;2023-01-26T03:08:37;21.27;;;3.70;;
42586;SDS011;28216;53.362;-6.288;2023-01-26T03:11:04;20.10;;;3.58;;
42586;SDS011;28216;53.362;-6.288;2023-01-26T03:13:30;23.73;;;4.07;;
42586;SDS011;28216;53.362;-6.288;2023-01-26T03:15:55;20.85;;;3.80;;
42586;SDS011;28216;53.362;-6.288;2023-01-26T03:18:26;18.95;;;3.90;;
42586;SDS011;28216;53.362;-6.288;2023-01-26T03:21:11;21.73;;;3.95;;
42586;SDS011;28216;53.362;-6.288;2023-01-26T03:23:57;22.55;;;4.85;;
42586;SDS011;28216;53.362;-6.288;2023-01-26T03:26:41;20.88;;;3.75;;
42586;SDS011;28216;53.362;-6.288;2023-01-26T03:29:25;22.77;;;4.18;;
42586;SDS011;28216;53.362;-6.288;2023-01-26T03:31:54;14.23;;;3.25;;
42586;SDS011;28216;53.362;-6.288;2023-01-26T03:34:20;17.65;;;3.30;;
42586;SDS011;28216;53.362;-6.288;2023-01-26T03:36:45;23.80;;;4.00;;
42586;SDS011;28216;53.362;-6.288;2023-01-26T03:39:12;18.05;;;3.55;;
42586;SDS011;28216;53.362;-6.288;2023-01-26T03:41:57;22.10;;;3.70;;
42586;SDS011;28216;53.362;-6.288;2023-01-26T03:44:42;17.98;;;3.50;;
42586;SDS011;28216;53.362;-6.288;2023-01-26T03:47:25;23.45;;;4.30;;
42586;SDS011;28216;53.362;-6.288;2023-01-26T03:50:09;25.38;;;4.25;;
42586;SDS011;28216;53.362;-6.288;2023-01-26T03:52:54;22.27;;;4.25;;
42586;SDS011;28216;53.362;-6.288;2023-01-26T03:55:38;17.58;;;3.42;;
42586;SDS011;28216;53.362;-6.288;2023-01-26T03:58:22;20.50;;;3.80;;
42586;SDS011;28216;53.362;-6.288;2023-01-26T04:00:50;23.45;;;4.13;;
42586;SDS011;28216;53.362;-6.288;2023-01-26T04:03:16;14.10;;;3.60;;
42586;SDS011;28216;53.362;-6.288;2023-01-26T04:05:59;17.58;;;3.80;;
42586;SDS011;28216;53.362;-6.288;2023-01-26T04:08:45;17.17;;;3.95;;
42586;SDS011;28216;53.362;-6.288;2023-01-26T04:11:11;20.60;;;3.85;;
42586;SDS011;28216;53.362;-6.288;2023-01-26T04:13:37;22.30;;;3.83;;
42586;SDS011;28216;53.362;-6.288;2023-01-26T04:16:21;18.20;;;3.60;;
42586;SDS011;28216;53.362;-6.288;2023-01-26T04:19:04;23.98;;;3.58;;
42586;SDS011;28216;53.362;-6.288;2023-01-26T04:21:48;15.85;;;3.25;;
42586;SDS011;28216;53.362;-6.288;2023-01-26T04:24:14;19.65;;;4.07;;
42586;SDS011;28216;53.362;-6.288;2023-01-26T04:26:40;14.60;;;3.58;;
42586;SDS011;28216;53.362;-6.288;2023-01-26T04:29:07;20.10;;;3.70;;
42586;SDS011;28216;53.362;-6.288;2023-01-26T04:31:37;17.27;;;3.25;;
42586;SDS011;28216;53.362;-6.288;2023-01-26T04:34:04;12.98;;;3.17;;
42586;SDS011;28216;53.362;-6.288;2023-01-26T04:36:31;20.45;;;3.60;;
42586;SDS011;28216;53.362;-6.288;2023-01-26T04:38:57;13.30;;;3.10;;
42586;SDS011;28216;53.362;-6.288;2023-01-26T04:41:22;17.80;;;3.63;;
42586;SDS011;28216;53.362;-6.288;2023-01-26T04:43:48;17.15;;;3.28;;
42586;SDS011;28216;53.362;-6.288;2023-01-26T04:46:13;15.90;;;3.03;;
42586;SDS011;28216;53.362;-6.288;2023-01-26T04:48:39;19.33;;;3.25;;
42586;SDS011;28216;53.362;-6.288;2023-01-26T04:51:10;21.02;;;3.60;;
42586;SDS011;28216;53.362;-6.288;2023-01-26T04:53:38;14.07;;;2.75;;
42586;SDS011;28216;53.362;-6.288;2023-01-26T04:56:03;16.92;;;3.42;;
42586;SDS011;28216;53.362;-6.288;2023-01-26T04:58:29;19.08;;;3.13;;
42586;SDS011;28216;53.362;-6.288;2023-01-26T05:00:56;14.05;;;2.92;;
42586;SDS011;28216;53.362;-6.288;2023-01-26T05:03:22;15.00;;;3.17;;
42586;SDS011;28216;53.362;-6.288;2023-01-26T05:05:50;19.15;;;2.95;;
42586;SDS011;28216;53.362;-6.288;2023-01-26T05:08:17;14.50;;;2.92;;
42586;SDS011;28216;53.362;-6.288;2023-01-26T05:10:43;17.85;;;3.47;;
42586;SDS011;28216;53.362;-6.288;2023-01-26T05:13:09;23.55;;;4.05;;
42586;SDS011;28216;53.362;-6.288;2023-01-26T05:15:35;14.82;;;3.20;;
42586;SDS011;28216;53.362;-6.288;2023-01-26T05:18:01;16.75;;;3.20;;
42586;SDS011;28216;53.362;-6.288;2023-01-26T05:20:27;12.00;;;2.80;;
42586;SDS011;28216;53.362;-6.288;2023-01-26T05:22:52;19.23;;;3.53;;
42586;SDS011;28216;53.362;-6.288;2023-01-26T05:25:18;21.90;;;3.30;;
42586;SDS011;28216;53.362;-6.288;2023-01-26T05:27:43;16.77;;;3.30;;
42586;SDS011;28216;53.362;-6.288;2023-01-26T05:30:09;17.92;;;3.33;;
42586;SDS011;28216;53.362;-6.288;2023-01-26T05:32:35;19.05;;;3.20;;
42586;SDS011;28216;53.362;-6.288;2023-01-26T05:35:01;17.60;;;3.30;;
42586;SDS011;28216;53.362;-6.288;2023-01-26T05:37:27;14.45;;;3.47;;
42586;SDS011;28216;53.362;-6.288;2023-01-26T05:39:53;15.30;;;3.45;;
42586;SDS011;28216;53.362;-6.288;2023-01-26T05:42:19;11.32;;;2.97;;
42586;SDS011;28216;53.362;-6.288;2023-01-26T05:44:45;19.42;;;3.28;;
42586;SDS011;28216;53.362;-6.288;2023-01-26T05:47:11;13.50;;;2.97;;
42586;SDS011;28216;53.362;-6.288;2023-01-26T05:49:37;15.90;;;3.20;;
42586;SDS011;28216;53.362;-6.288;2023-01-26T05:52:09;16.63;;;3.38;;
42586;SDS011;28216;53.362;-6.288;2023-01-26T05:54:35;14.75;;;3.15;;
42586;SDS011;28216;53.362;-6.288;2023-01-26T05:57:01;15.55;;;3.20;;
42586;SDS011;28216;53.362;-6.288;2023-01-26T05:59:27;14.98;;;2.83;;
42586;SDS011;28216;53.362;-6.288;2023-01-26T06:01:54;17.70;;;3.38;;
42586;SDS011;28216;53.362;-6.288;2023-01-26T06:04:20;15.98;;;3.40;;
42586;SDS011;28216;53.362;-6.288;2023-01-26T06:06:45;19.73;;;3.58;;
42586;SDS011;28216;53.362;-6.288;2023-01-26T06:09:11;20.17;;;3.63;;
42586;SDS011;28216;53.362;-6.288;2023-01-26T06:11:36;15.85;;;2.92;;
42586;SDS011;28216;53.362;-6.288;2023-01-26T06:14:02;16.50;;;3.78;;
42586;SDS011;28216;53.362;-6.288;2023-01-26T06:16:28;18.95;;;3.20;;
42586;SDS011;28216;53.362;-6.288;2023-01-26T06:18:53;15.75;;;3.35;;
42586;SDS011;28216;53.362;-6.288;2023-01-26T06:21:19;18.08;;;3.28;;
42586;SDS011;28216;53.362;-6.288;2023-01-26T06:23:44;16.35;;;2.97;;
42586;SDS011;28216;53.362;-6.288;2023-01-26T06:26:10;16.77;;;3.20;;
42586;SDS011;28216;53.362;-6.288;2023-01-26T06:28:35;15.18;;;2.88;;
42586;SDS011;28216;53.362;-6.288;2023-01-26T06:31:05;15.65;;;3.25;;
42586;SDS011;28216;53.362;-6.288;2023-01-26T06:33:33;21.98;;;3.40;;
42586;SDS011;28216;53.362;-6.288;2023-01-26T06:36:03;19.98;;;3.65;;
42586;SDS011;28216;53.362;-6.288;2023-01-26T06:38:30;16.80;;;2.75;;
42586;SDS011;28216;53.362;-6.288;2023-01-26T06:40:59;16.13;;;2.80;;
42586;SDS011;28216;53.362;-6.288;2023-01-26T06:43:29;16.80;;;3.20;;
42586;SDS011;28216;53.362;-6.288;2023-01-26T06:45:56;16.00;;;2.55;;
42586;SDS011;28216;53.362;-6.288;2023-01-26T06:48:22;17.23;;;2.72;;
42586;SDS011;28216;53.362;-6.288;2023-01-26T06:50:49;13.00;;;2.72;;
42586;SDS011;28216;53.362;-6.288;2023-01-26T06:55:54;19.65;;;3.08;;
42586;SDS011;28216;53.362;-6.288;2023-01-26T06:58:19;15.13;;;3.30;;
42586;SDS011;28216;53.362;-6.288;2023-01-26T07:00:45;18.73;;;3.10;;
42586;SDS011;28216;53.362;-6.288;2023-01-26T07:03:10;18.70;;;2.92;;
42586;SDS011;28216;53.362;-6.288;2023-01-26T07:05:35;19.48;;;3.40;;
42586;SDS011;28216;53.362;-6.288;2023-01-26T07:08:01;14.90;;;2.80;;
42586;SDS011;28216;53.362;-6.288;2023-01-26T07:10:28;16.27;;;3.42;;
42586;SDS011;28216;53.362;-6.288;2023-01-26T07:12:54;19.88;;;3.38;;
42586;SDS011;28216;53.362;-6.288;2023-01-26T07:15:19;20.63;;;3.30;;
42586;SDS011;28216;53.362;-6.288;2023-01-26T07:17:45;20.83;;;3.67;;
42586;SDS011;28216;53.362;-6.288;2023-01-26T07:20:10;19.88;;;3.20;;
42586;SDS011;28216;53.362;-6.288;2023-01-26T07:22:36;20.58;;;3.50;;
42586;SDS011;28216;53.362;-6.288;2023-01-26T07:25:01;17.17;;;3.05;;
42586;SDS011;28216;53.362;-6.288;2023-01-26T07:27:27;20.48;;;3.30;;
42586;SDS011;28216;53.362;-6.288;2023-01-26T07:29:52;14.20;;;2.92;;
42586;SDS011;28216;53.362;-6.288;2023-01-26T07:32:18;19.35;;;2.97;;
42586;SDS011;28216;53.362;-6.288;2023-01-26T07:34:43;16.10;;;3.15;;
42586;SDS011;28216;53.362;-6.288;2023-01-26T07:37:08;14.27;;;2.97;;
42586;SDS011;28216;53.362;-6.288;2023-01-26T07:39:34;18.60;;;4.03;;
42586;SDS011;28216;53.362;-6.288;2023-01-26T07:41:59;12.55;;;2.80;;
42586;SDS011;28216;53.362;-6.288;2023-01-26T07:44:25;16.25;;;3.63;;
42586;SDS011;28216;53.362;-6.288;2023-01-26T07:46:50;19.88;;;3.50;;
42586;SDS011;28216;53.362;-6.288;2023-01-26T07:49:17;15.68;;;3.33;;
42586;SDS011;28216;53.362;-6.288;2023-01-26T07:51:42;18.60;;;3.35;;
42586;SDS011;28216;53.362;-6.288;2023-01-26T07:54:08;16.25;;;3.13;;
42586;SDS011;28216;53.362;-6.288;2023-01-26T07:56:35;16.75;;;3.88;;
42586;SDS011;28216;53.362;-6.288;2023-01-26T07:59:01;17.40;;;2.95;;
42586;SDS011;28216;53.362;-6.288;2023-01-26T08:01:27;16.30;;;3.08;;
42586;SDS011;28216;53.362;-6.288;2023-01-26T08:03:52;16.45;;;3.00;;
42586;SDS011;28216;53.362;-6.288;2023-01-26T08:06:18;17.45;;;2.92;;
42586;SDS011;28216;53.362;-6.288;2023-01-26T08:08:44;17.30;;;2.88;;
42586;SDS011;28216;53.362;-6.288;2023-01-26T08:11:14;14.55;;;3.25;;
42586;SDS011;28216;53.362;-6.288;2023-01-26T08:13:42;14.55;;;2.85;;
42586;SDS011;28216;53.362;-6.288;2023-01-26T08:16:08;19.33;;;3.00;;
42586;SDS011;28216;53.362;-6.288;2023-01-26T08:18:39;13.82;;;2.60;;
42586;SDS011;28216;53.362;-6.288;2023-01-26T08:21:06;11.90;;;2.63;;
42586;SDS011;28216;53.362;-6.288;2023-01-26T08:23:32;17.65;;;3.17;;
42586;SDS011;28216;53.362;-6.288;2023-01-26T08:26:04;13.88;;;3.08;;
42586;SDS011;28216;53.362;-6.288;2023-01-26T08:28:32;16.17;;;3.17;;
42586;SDS011;28216;53.362;-6.288;2023-01-26T08:31:05;15.43;;;2.97;;
42586;SDS011;28216;53.362;-6.288;2023-01-26T08:33:32;12.88;;;2.72;;
42586;SDS011;28216;53.362;-6.288;2023-01-26T08:36:01;10.80;;;2.47;;
42586;SDS011;28216;53.362;-6.288;2023-01-26T08:38:29;13.82;;;2.90;;
42586;SDS011;28216;53.362;-6.288;2023-01-26T08:40:56;15.15;;;2.92;;
42586;SDS011;28216;53.362;-6.288;2023-01-26T08:43:21;18.50;;;2.90;;
42586;SDS011;28216;53.362;-6.288;2023-01-26T08:45:47;17.15;;;2.70;;
42586;SDS011;28216;53.362;-6.288;2023-01-26T08:48:12;16.05;;;3.70;;
42586;SDS011;28216;53.362;-6.288;2023-01-26T08:50:38;14.43;;;2.72;;
42586;SDS011;28216;53.362;-6.288;2023-01-26T08:53:03;17.05;;;2.92;;
42586;SDS011;28216;53.362;-6.288;2023-01-26T08:55:29;17.83;;;3.40;;
42586;SDS011;28216;53.362;-6.288;2023-01-26T08:57:56;12.68;;;2.67;;
42586;SDS011;28216;53.362;-6.288;2023-01-26T09:00:22;13.50;;;3.42;;
42586;SDS011;28216;53.362;-6.288;2023-01-26T09:02:48;15.13;;;2.85;;
42586;SDS011;28216;53.362;-6.288;2023-01-26T09:05:14;17.25;;;3.05;;
42586;SDS011;28216;53.362;-6.288;2023-01-26T09:07:39;18.50;;;2.88;;
42586;SDS011;28216;53.362;-6.288;2023-01-26T09:10:05;14.10;;;2.80;;
42586;SDS011;28216;53.362;-6.288;2023-01-26T09:12:31;17.33;;;3.33;;
42586;SDS011;28216;53.362;-6.288;2023-01-26T09:14:57;18.48;;;3.20;;
42586;SDS011;28216;53.362;-6.288;2023-01-26T09:17:22;18.58;;;3.42;;
42586;SDS011;28216;53.362;-6.288;2023-01-26T09:19:47;19.40;;;3.50;;
42586;SDS011;28216;53.362;-6.288;2023-01-26T09:22:13;14.13;;;4.03;;
42586;SDS011;28216;53.362;-6.288;2023-01-26T09:24:38;16.45;;;3.95;;
42586;SDS011;28216;53.362;-6.288;2023-01-26T09:27:04;15.68;;;3.30;;
42586;SDS011;28216;53.362;-6.288;2023-01-26T09:29:29;16.45;;;3.17;;
42586;SDS011;28216;53.362;-6.288;2023-01-26T09:31:54;20.00;;;3.70;;
42586;SDS011;28216;53.362;-6.288;2023-01-26T09:34:20;21.05;;;3.70;;
42586;SDS011;28216;53.362;-6.288;2023-01-26T09:36:45;18.27;;;3.70;;
42586;SDS011;28216;53.362;-6.288;2023-01-26T09:39:11;22.90;;;3.65;;
42586;SDS011;28216;53.362;-6.288;2023-01-26T09:41:58;18.35;;;4.03;;
42586;SDS011;28216;53.362;-6.288;2023-01-26T09:44:38;14.98;;;3.80;;
42586;SDS011;28216;53.362;-6.288;2023-01-26T09:47:20;16.75;;;3.97;;
42586;SDS011;28216;53.362;-6.288;2023-01-26T09:50:07;20.40;;;4.07;;
42586;SDS011;28216;53.362;-6.288;2023-01-26T09:52:41;16.75;;;4.57;;
42586;SDS011;28216;53.362;-6.288;2023-01-26T09:55:17;18.85;;;4.53;;
42586;SDS011;28216;53.362;-6.288;2023-01-26T10:00:45;13.57;;;2.95;;
42586;SDS011;28216;53.362;-6.288;2023-01-26T10:08:31;11.50;;;3.15;;
42586;SDS011;28216;53.362;-6.288;2023-01-26T10:11:39;14.65;;;3.20;;
42586;SDS011;28216;53.362;-6.288;2023-01-26T10:13:53;13.15;;;3.13;;
42586;SDS011;28216;53.362;-6.288;2023-01-26T10:16:21;13.93;;;2.70;;
42586;SDS011;28216;53.362;-6.288;2023-01-26T10:18:51;14.20;;;2.60;;
42586;SDS011;28216;53.362;-6.288;2023-01-26T10:21:21;11.38;;;2.92;;
42586;SDS011;28216;53.362;-6.288;2023-01-26T10:23:49;17.90;;;3.92;;
42586;SDS011;28216;53.362;-6.288;2023-01-26T10:26:18;11.75;;;2.58;;
42586;SDS011;28216;53.362;-6.288;2023-01-26T10:28:46;13.07;;;3.00;;
42586;SDS011;28216;53.362;-6.288;2023-01-26T10:33:56;17.27;;;5.07;;
42586;SDS011;28216;53.362;-6.288;2023-01-26T10:36:27;10.75;;;3.38;;
42586;SDS011;28216;53.362;-6.288;2023-01-26T10:38:54;10.68;;;2.95;;
42586;SDS011;28216;53.362;-6.288;2023-01-26T10:41:28;14.95;;;3.03;;
42586;SDS011;28216;53.362;-6.288;2023-01-26T10:46:44;11.52;;;2.55;;
42586;SDS011;28216;53.362;-6.288;2023-01-26T10:51:36;12.07;;;3.30;;
42586;SDS011;28216;53.362;-6.288;2023-01-26T10:59:55;14.30;;;3.28;;
42586;SDS011;28216;53.362;-6.288;2023-01-26T11:02:26;9.98;;;2.78;;
42586;SDS011;28216;53.362;-6.288;2023-01-26T11:05:00;12.55;;;2.92;;
42586;SDS011;28216;53.362;-6.288;2023-01-26T11:07:35;14.85;;;2.65;;
42586;SDS011;28216;53.362;-6.288;2023-01-26T11:13:06;10.52;;;2.50;;
42586;SDS011;28216;53.362;-6.288;2023-01-26T11:15:37;12.90;;;2.92;;
42586;SDS011;28216;53.362;-6.288;2023-01-26T11:21:04;15.15;;;2.72;;
42586;SDS011;28216;53.362;-6.288;2023-01-26T11:31:53;9.07;;;2.15;;
42586;SDS011;28216;53.362;-6.288;2023-01-26T11:51:50;10.10;;;2.47;;
42586;SDS011;28216;53.362;-6.288;2023-01-26T11:54:38;12.98;;;2.30;;
42586;SDS011;28216;53.362;-6.288;2023-01-26T11:57:34;12.75;;;2.50;;
42586;SDS011;28216;53.362;-6.288;2023-01-26T12:02:41;10.02;;;2.20;;
42586;SDS011;28216;53.362;-6.288;2023-01-26T12:05:18;9.20;;;2.03;;
42586;SDS011;28216;53.362;-6.288;2023-01-26T12:07:53;8.25;;;2.10;;
42586;SDS011;28216;53.362;-6.288;2023-01-26T12:10:40;8.13;;;2.15;;
42586;SDS011;28216;53.362;-6.288;2023-01-26T12:13:21;12.68;;;2.42;;
42586;SDS011;28216;53.362;-6.288;2023-01-26T12:15:53;8.50;;;2.40;;
42586;SDS011;28216;53.362;-6.288;2023-01-26T12:18:23;14.43;;;2.50;;
42586;SDS011;28216;53.362;-6.288;2023-01-26T12:20:59;10.90;;;2.30;;
42586;SDS011;28216;53.362;-6.288;2023-01-26T12:26:20;9.48;;;2.28;;
42586;SDS011;28216;53.362;-6.288;2023-01-26T12:34:24;8.15;;;2.85;;
42586;SDS011;28216;53.362;-6.288;2023-01-26T12:44:41;11.48;;;2.70;;
42586;SDS011;28216;53.362;-6.288;2023-01-26T12:49:35;12.20;;;2.90;;
42586;SDS011;28216;53.362;-6.288;2023-01-26T12:52:06;9.80;;;2.75;;
42586;SDS011;28216;53.362;-6.288;2023-01-26T12:54:39;11.73;;;2.70;;
42586;SDS011;28216;53.362;-6.288;2023-01-26T12:57:17;10.15;;;2.20;;
42586;SDS011;28216;53.362;-6.288;2023-01-26T12:59:47;9.60;;;2.20;;
42586;SDS011;28216;53.362;-6.288;2023-01-26T13:04:39;12.50;;;2.90;;
42586;SDS011;28216;53.362;-6.288;2023-01-26T13:10:06;9.68;;;2.40;;
42586;SDS011;28216;53.362;-6.288;2023-01-26T13:15:17;10.23;;;2.60;;
42586;SDS011;28216;53.362;-6.288;2023-01-26T13:17:48;9.98;;;2.15;;
42586;SDS011;28216;53.362;-6.288;2023-01-26T13:20:25;8.38;;;2.38;;
42586;SDS011;28216;53.362;-6.288;2023-01-26T13:22:53;9.25;;;3.03;;
42586;SDS011;28216;53.362;-6.288;2023-01-26T13:27:55;8.30;;;2.75;;
42586;SDS011;28216;53.362;-6.288;2023-01-26T13:33:08;9.32;;;2.50;;
42586;SDS011;28216;53.362;-6.288;2023-01-26T13:35:36;9.50;;;2.55;;
42586;SDS011;28216;53.362;-6.288;2023-01-26T13:38:09;11.60;;;3.08;;
42586;SDS011;28216;53.362;-6.288;2023-01-26T13:40:40;11.40;;;2.95;;
42586;SDS011;28216;53.362;-6.288;2023-01-26T13:48:49;11.07;;;2.60;;
42586;SDS011;28216;53.362;-6.288;2023-01-26T13:51:21;8.50;;;2.25;;
42586;SDS011;28216;53.362;-6.288;2023-01-26T13:53:52;9.13;;;2.60;;
42586;SDS011;28216;53.362;-6.288;2023-01-26T13:59:06;10.57;;;2.15;;
42586;SDS011;28216;53.362;-6.288;2023-01-26T14:01:45;9.45;;;2.42;;
42586;SDS011;28216;53.362;-6.288;2023-01-26T14:04:13;15.70;;;3.03;;
42586;SDS011;28216;53.362;-6.288;2023-01-26T14:06:47;15.82;;;3.35;;
42586;SDS011;28216;53.362;-6.288;2023-01-26T14:09:18;13.38;;;3.90;;
42586;SDS011;28216;53.362;-6.288;2023-01-26T14:11:45;16.38;;;3.15;;
42586;SDS011;28216;53.362;-6.288;2023-01-26T14:14:23;15.00;;;3.10;;
42586;SDS011;28216;53.362;-6.288;2023-01-26T14:16:50;14.13;;;3.17;;
42586;SDS011;28216;53.362;-6.288;2023-01-26T14:19:17;11.00;;;2.50;;
42586;SDS011;28216;53.362;-6.288;2023-01-26T14:24:10;10.48;;;2.72;;
42586;SDS011;28216;53.362;-6.288;2023-01-26T14:26:36;11.80;;;2.85;;
42586;SDS011;28216;53.362;-6.288;2023-01-26T14:29:02;10.00;;;2.03;;
42586;SDS011;28216;53.362;-6.288;2023-01-26T14:31:27;9.90;;;2.50;;
42586;SDS011;28216;53.362;-6.288;2023-01-26T14:33:55;14.00;;;2.72;;
42586;SDS011;28216;53.362;-6.288;2023-01-26T14:36:23;11.80;;;2.60;;
42586;SDS011;28216;53.362;-6.288;2023-01-26T14:38:52;13.70;;;2.50;;
42586;SDS011;28216;53.362;-6.288;2023-01-26T14:41:24;15.52;;;2.83;;
42586;SDS011;28216;53.362;-6.288;2023-01-26T14:43:53;11.55;;;2.42;;
42586;SDS011;28216;53.362;-6.288;2023-01-26T14:46:24;13.65;;;2.40;;
42586;SDS011;28216;53.362;-6.288;2023-01-26T14:48:57;13.85;;;2.50;;
42586;SDS011;28216;53.362;-6.288;2023-01-26T14:51:37;11.55;;;2.58;;
42586;SDS011;28216;53.362;-6.288;2023-01-26T14:54:03;15.35;;;2.30;;
42586;SDS011;28216;53.362;-6.288;2023-01-26T14:56:52;11.88;;;2.38;;
42586;SDS011;28216;53.362;-6.288;2023-01-26T14:59:21;13.30;;;2.55;;
42586;SDS011;28216;53.362;-6.288;2023-01-26T15:02:01;11.32;;;2.67;;
42586;SDS011;28216;53.362;-6.288;2023-01-26T15:04:57;12.98;;;2.70;;
42586;SDS011;28216;53.362;-6.288;2023-01-26T15:07:31;9.48;;;2.95;;
42586;SDS011;28216;53.362;-6.288;2023-01-26T15:10:24;11.45;;;2.55;;
42586;SDS011;28216;53.362;-6.288;2023-01-26T15:13:45;10.23;;;2.65;;
42586;SDS011;28216;53.362;-6.288;2023-01-26T15:16:16;10.25;;;2.63;;
42586;SDS011;28216;53.362;-6.288;2023-01-26T15:18:43;10.50;;;2.58;;
42586;SDS011;28216;53.362;-6.288;2023-01-26T15:21:17;10.25;;;2.40;;
42586;SDS011;28216;53.362;-6.288;2023-01-26T15:23:45;11.57;;;2.70;;
42586;SDS011;28216;53.362;-6.288;2023-01-26T15:26:30;13.70;;;2.90;;
42586;SDS011;28216;53.362;-6.288;2023-01-26T15:28:58;12.77;;;3.10;;
42586;SDS011;28216;53.362;-6.288;2023-01-26T15:31:39;12.63;;;2.60;;
42586;SDS011;28216;53.362;-6.288;2023-01-26T15:34:25;12.13;;;2.40;;
42586;SDS011;28216;53.362;-6.288;2023-01-26T15:39:54;12.63;;;2.72;;
42586;SDS011;28216;53.362;-6.288;2023-01-26T15:42:20;11.75;;;3.35;;
42586;SDS011;28216;53.362;-6.288;2023-01-26T15:44:48;13.00;;;3.70;;
42586;SDS011;28216;53.362;-6.288;2023-01-26T15:47:13;12.43;;;3.90;;
42586;SDS011;28216;53.362;-6.288;2023-01-26T15:49:39;14.00;;;3.53;;
42586;SDS011;28216;53.362;-6.288;2023-01-26T15:52:15;12.52;;;3.35;;
42586;SDS011;28216;53.362;-6.288;2023-01-26T15:54:43;12.60;;;2.88;;
42586;SDS011;28216;53.362;-6.288;2023-01-26T15:57:09;9.35;;;2.92;;
42586;SDS011;28216;53.362;-6.288;2023-01-26T15:59:36;11.25;;;3.38;;
42586;SDS011;28216;53.362;-6.288;2023-01-26T16:02:02;10.82;;;3.55;;
42586;SDS011;28216;53.362;-6.288;2023-01-26T16:04:28;13.18;;;3.60;;
42586;SDS011;28216;53.362;-6.288;2023-01-26T16:06:53;12.93;;;4.05;;
42586;SDS011;28216;53.362;-6.288;2023-01-26T16:09:19;14.23;;;3.55;;
42586;SDS011;28216;53.362;-6.288;2023-01-26T16:11:50;15.38;;;3.47;;
42586;SDS011;28216;53.362;-6.288;2023-01-26T16:14:17;11.32;;;3.90;;
42586;SDS011;28216;53.362;-6.288;2023-01-26T16:16:43;16.13;;;4.15;;
42586;SDS011;28216;53.362;-6.288;2023-01-26T16:19:08;12.20;;;3.15;;
42586;SDS011;28216;53.362;-6.288;2023-01-26T16:21:35;13.30;;;3.97;;
42586;SDS011;28216;53.362;-6.288;2023-01-26T16:24:03;11.38;;;3.88;;
42586;SDS011;28216;53.362;-6.288;2023-01-26T16:26:29;10.23;;;3.35;;